createdAt,value
2022-12-12T00:04:17.905Z,18.87
2022-12-12T00:09:21.007Z,20.63
2022-12-12T00:14:28.661Z,15.37
2022-12-12T00:19:31.862Z,16.83
2022-12-12T00:24:34.922Z,18.33
2022-12-12T00:29:39.292Z,17.70
2022-12-12T00:34:42.332Z,20.03
2022-12-12T00:39:45.551Z,17.97
2022-12-12T00:44:50.004Z,20.40
2022-12-12T00:49:53.150Z,23.70
2022-12-12T00:54:59.236Z,23.47
2022-12-12T01:00:03.715Z,22.03
2022-12-12T01:05:07.745Z,23.80
2022-12-12T01:10:12.024Z,20.13
2022-12-12T01:15:16.603Z,19.33
2022-12-12T01:20:23.263Z,19.50
2022-12-12T01:25:26.224Z,19.30
2022-12-12T01:30:30.940Z,20.33
2022-12-12T01:35:35.593Z,20.80
2022-12-12T01:40:38.988Z,24.33
2022-12-12T01:46:30.554Z,22.60
2022-12-12T01:51:35.377Z,19.93
2022-12-12T01:56:40.742Z,25.40
2022-12-12T02:01:44.264Z,22.70
2022-12-12T02:06:50.284Z,24.43
2022-12-12T02:11:55.687Z,25.60
2022-12-12T02:18:02.246Z,26.90
2022-12-12T02:23:41.894Z,24.03
2022-12-12T02:29:14.917Z,24.37
2022-12-12T02:34:28.381Z,24.30
2022-12-12T02:39:40.963Z,24.70
2022-12-12T02:44:53.369Z,28.23
2022-12-12T02:50:02.949Z,23.27
2022-12-12T02:55:06.752Z,22.73
2022-12-12T03:00:12.624Z,23.63
2022-12-12T03:05:51.254Z,24.10
2022-12-12T03:10:58.887Z,23.27
2022-12-12T03:16:19.060Z,21.40
2022-12-12T03:21:29.280Z,25.97
2022-12-12T03:26:37.142Z,23.97
2022-12-12T03:31:45.894Z,22.77
2022-12-12T03:36:57.986Z,22.57
2022-12-12T03:42:09.788Z,25.20
2022-12-12T03:47:16.883Z,23.10
2022-12-12T03:52:28.119Z,21.07
2022-12-12T03:57:35.921Z,22.23
2022-12-12T04:02:43.046Z,25.10
2022-12-12T04:07:52.912Z,22.90
2022-12-12T04:13:07.187Z,24.27
2022-12-12T04:18:18.180Z,22.90
2022-12-12T04:23:32.974Z,22.17
2022-12-12T04:28:41.169Z,23.00
2022-12-12T04:33:50.621Z,23.10
2022-12-12T04:38:55.988Z,21.63
2022-12-12T04:44:02.330Z,21.17
2022-12-12T04:49:09.184Z,24.17
2022-12-12T04:54:19.509Z,21.27
2022-12-12T04:59:23.067Z,25.40
2022-12-12T05:04:31.226Z,23.30
2022-12-12T05:09:36.429Z,22.63
2022-12-12T05:14:39.460Z,24.57
2022-12-12T05:19:43.451Z,25.20
2022-12-12T05:24:47.953Z,24.50
2022-12-12T05:29:50.994Z,24.93
2022-12-12T05:34:54.098Z,23.67
2022-12-12T05:39:58.728Z,21.90
2022-12-12T05:45:02.354Z,23.40
2022-12-12T05:50:05.982Z,21.17
2022-12-12T05:55:10.850Z,25.53
2022-12-12T06:00:15.458Z,23.20
2022-12-12T06:05:18.682Z,26.23
2022-12-12T06:10:23.112Z,23.23
2022-12-12T06:15:29.019Z,23.00
2022-12-12T06:20:32.573Z,27.60
2022-12-12T06:25:36.980Z,25.40
2022-12-12T06:30:40.071Z,25.63
2022-12-12T06:35:43.221Z,25.70
2022-12-12T06:40:47.631Z,26.53
2022-12-12T06:45:50.640Z,21.90
2022-12-12T06:50:53.702Z,26.13
2022-12-12T06:56:00.013Z,24.00
2022-12-12T07:01:03.413Z,24.07
2022-12-12T07:06:07.166Z,24.70
2022-12-12T07:11:13.686Z,30.27
2022-12-12T07:16:17.075Z,23.93
2022-12-12T07:21:21.585Z,19.67
2022-12-12T07:26:27.456Z,22.43
2022-12-12T07:31:30.625Z,25.83
2022-12-12T07:36:33.850Z,26.23
2022-12-12T07:41:40.910Z,22.83
2022-12-12T07:46:44.239Z,23.07
2022-12-12T07:51:49.396Z,25.10
2022-12-12T07:56:54.361Z,22.10
2022-12-12T08:02:00.759Z,24.53
2022-12-12T08:07:08.295Z,23.47
2022-12-12T08:12:13.210Z,24.33
2022-12-12T08:17:16.308Z,23.20
2022-12-12T08:22:19.623Z,24.97
2022-12-12T08:27:24.241Z,25.03
2022-12-12T08:32:27.325Z,23.40
2022-12-12T08:37:31.155Z,24.80
2022-12-12T08:42:36.666Z,21.50
2022-12-12T08:47:39.894Z,25.07
2022-12-12T08:52:42.839Z,26.43
2022-12-12T08:57:47.234Z,24.90
2022-12-12T09:02:50.403Z,25.90
2022-12-12T09:07:53.503Z,25.43
2022-12-12T09:12:59.813Z,24.90
2022-12-12T09:18:09.275Z,22.10
2022-12-12T09:23:12.492Z,21.93
2022-12-12T09:28:19.818Z,26.37
2022-12-12T09:33:22.932Z,22.10
2022-12-12T09:38:25.939Z,22.40
2022-12-12T09:43:34.863Z,20.67
2022-12-12T09:48:43.249Z,18.93
2022-12-12T09:53:48.115Z,22.67
2022-12-12T09:58:59.515Z,22.37
2022-12-12T10:04:14.833Z,19.77
2022-12-12T10:09:40.238Z,18.40
2022-12-12T10:14:49.258Z,15.87
2022-12-12T10:19:55.124Z,17.10
2022-12-12T10:25:05.121Z,17.03
2022-12-12T10:30:17.026Z,19.33
2022-12-12T10:35:28.963Z,18.13
2022-12-12T10:40:44.927Z,15.87
2022-12-12T10:46:10.544Z,17.20
2022-12-12T10:51:17.723Z,16.17
2022-12-12T10:56:22.786Z,17.03
2022-12-12T11:06:56.833Z,13.87
2022-12-12T11:12:01.871Z,15.67
2022-12-12T11:17:22.003Z,16.60
2022-12-12T11:22:26.449Z,17.90
2022-12-12T11:27:33.527Z,15.53
2022-12-12T11:32:42.744Z,18.27
2022-12-12T11:37:49.808Z,14.27
2022-12-12T11:42:57.360Z,16.10
2022-12-12T11:48:02.125Z,16.27
2022-12-12T11:53:09.637Z,14.07
2022-12-12T11:58:21.593Z,15.33
2022-12-12T12:03:30.679Z,19.03
2022-12-12T12:08:49.010Z,17.90
2022-12-12T12:14:13.686Z,18.43
2022-12-12T12:19:26.839Z,16.90
2022-12-12T12:24:46.409Z,16.47
2022-12-12T12:30:07.587Z,18.37
2022-12-12T12:35:24.965Z,17.07
2022-12-12T12:40:41.800Z,16.80
2022-12-12T12:45:49.768Z,14.97
2022-12-12T12:51:04.926Z,16.40
2022-12-12T12:56:23.615Z,15.23
2022-12-12T13:01:35.248Z,17.33
2022-12-12T13:06:46.623Z,13.60
2022-12-12T13:11:53.569Z,14.13
2022-12-12T13:16:57.939Z,15.27
2022-12-12T13:22:07.490Z,15.07
2022-12-12T13:27:16.767Z,15.50
2022-12-12T13:33:09.677Z,14.33
2022-12-12T13:38:23.353Z,15.90
2022-12-12T13:43:41.263Z,14.93
2022-12-12T13:48:50.236Z,12.40
2022-12-12T13:54:35.484Z,13.93
2022-12-12T14:00:26.868Z,14.37
2022-12-12T14:05:33.153Z,13.83
2022-12-12T14:10:41.280Z,11.47
2022-12-12T14:15:46.067Z,15.27
2022-12-12T14:20:58.142Z,13.30
2022-12-12T14:26:23.491Z,16.70
2022-12-12T14:31:34.846Z,15.53
2022-12-12T14:37:09.932Z,15.23
2022-12-12T14:42:26.273Z,16.93
2022-12-12T14:47:29.596Z,14.63
2022-12-12T14:52:33.184Z,14.17
2022-12-12T14:57:38.030Z,16.17
2022-12-12T15:02:41.223Z,13.63
2022-12-12T15:07:44.423Z,16.83
2022-12-12T15:12:48.962Z,13.77
2022-12-12T15:17:53.189Z,17.03
2022-12-12T15:22:58.761Z,17.57
2022-12-12T15:28:04.171Z,14.83
2022-12-12T15:33:10.102Z,14.40
2022-12-12T15:38:14.336Z,13.67
2022-12-12T15:43:23.330Z,16.70
2022-12-12T15:48:27.463Z,15.87
2022-12-12T15:53:35.413Z,17.83
2022-12-12T15:58:41.970Z,16.10
2022-12-12T16:03:57.212Z,17.33
2022-12-12T16:09:11.525Z,15.07
2022-12-12T16:14:42.773Z,18.47
2022-12-12T16:19:53.868Z,20.43
2022-12-12T16:25:12.333Z,17.67
2022-12-12T16:30:17.497Z,16.30
2022-12-12T16:35:23.337Z,16.37
2022-12-12T16:40:26.749Z,18.37
2022-12-12T16:45:31.274Z,17.87
2022-12-12T16:50:34.392Z,16.27
2022-12-12T16:55:40.841Z,17.60
2022-12-12T17:00:46.282Z,17.70
2022-12-12T17:05:49.779Z,20.07
2022-12-12T17:11:10.153Z,17.17
2022-12-12T17:16:22.684Z,22.13
2022-12-12T17:21:29.101Z,17.60
2022-12-12T17:26:32.540Z,18.67
2022-12-12T17:31:37.669Z,60.40
2022-12-12T17:36:42.137Z,39.73
2022-12-12T17:41:45.549Z,21.13
2022-12-12T17:46:50.125Z,22.23
2022-12-12T17:51:53.256Z,21.40
2022-12-12T17:56:56.880Z,33.50
2022-12-12T18:02:01.330Z,35.30
2022-12-12T18:07:04.516Z,42.67
2022-12-12T18:12:08.439Z,30.27
2022-12-12T18:17:12.993Z,21.90
2022-12-12T18:22:18.252Z,17.97
2022-12-12T18:27:21.477Z,17.93
2022-12-12T18:32:25.901Z,18.77
2022-12-12T18:37:28.853Z,18.67
2022-12-12T18:42:32.328Z,18.20
2022-12-12T18:47:37.081Z,19.23
2022-12-12T18:52:40.319Z,16.63
2022-12-12T18:57:43.664Z,18.97
2022-12-12T19:02:48.365Z,16.03
2022-12-12T19:07:52.005Z,18.80
2022-12-12T19:12:57.001Z,16.17
2022-12-12T19:18:01.495Z,23.00
2022-12-12T19:23:04.916Z,16.87
2022-12-12T19:28:15.739Z,15.10
2022-12-12T19:33:20.711Z,18.80
2022-12-12T19:38:24.666Z,15.53
2022-12-12T19:43:30.436Z,16.53
2022-12-12T19:48:39.944Z,18.60
2022-12-12T19:53:45.167Z,15.70
2022-12-12T19:58:49.262Z,16.10
2022-12-12T20:04:01.171Z,17.80
2022-12-12T20:09:04.463Z,18.17
2022-12-12T20:14:07.452Z,16.97
2022-12-12T20:19:12.876Z,19.07
2022-12-12T20:24:16.788Z,20.47
2022-12-12T20:29:21.653Z,20.20
2022-12-12T20:34:26.184Z,14.80
2022-12-12T20:39:29.641Z,15.83
2022-12-12T20:44:32.803Z,19.07
2022-12-12T20:49:55.020Z,17.63
2022-12-12T20:55:00.987Z,21.10
2022-12-12T21:00:04.503Z,17.30
2022-12-12T21:05:10.019Z,18.53
2022-12-12T21:10:13.237Z,19.17
2022-12-12T21:15:16.594Z,18.77
2022-12-12T21:20:24.229Z,17.43
2022-12-12T21:25:29.972Z,17.53
2022-12-12T21:30:33.525Z,19.23
2022-12-12T21:35:41.332Z,17.33
2022-12-12T21:40:44.771Z,21.00
2022-12-12T21:45:47.925Z,20.60
2022-12-12T21:50:52.461Z,18.07
2022-12-12T21:56:05.855Z,17.47
2022-12-12T22:01:11.649Z,19.43
2022-12-12T22:06:18.098Z,18.63
2022-12-12T22:11:40.552Z,16.17
2022-12-12T22:16:45.386Z,17.67
2022-12-12T22:21:50.615Z,16.40
2022-12-12T22:26:53.825Z,18.40
2022-12-12T22:31:57.507Z,16.53
2022-12-12T22:37:02.220Z,16.80
2022-12-12T22:42:06.178Z,20.37
2022-12-12T22:47:10.040Z,15.50
2022-12-12T22:52:14.673Z,16.40
2022-12-12T22:57:17.779Z,17.00
2022-12-12T23:02:24.982Z,17.67
2022-12-12T23:07:32.615Z,18.00
2022-12-12T23:12:35.672Z,16.40
2022-12-12T23:17:38.728Z,15.40
2022-12-12T23:22:46.435Z,19.60
2022-12-12T23:27:49.551Z,16.73
2022-12-12T23:32:52.701Z,18.63
2022-12-12T23:37:59.338Z,17.37
2022-12-12T23:43:02.333Z,15.70
2022-12-12T23:48:06.330Z,15.60
2022-12-12T23:53:10.945Z,17.97
2022-12-12T23:58:13.930Z,15.53
